sensor_id;sensor_type;location;lat;lon;timestamp;P1;durP1;ratioP1;P2;durP2;ratioP2
7879;SDS011;3985;49.366;2.738;2024-02-26T00:00:04;2.00;;;0.00;;
7879;SDS011;3985;49.366;2.738;2024-02-26T00:02:34;3.00;;;3.00;;
7879;SDS011;3985;49.366;2.738;2024-02-26T00:05:03;2.75;;;2.75;;
7879;SDS011;3985;49.366;2.738;2024-02-26T00:07:31;3.00;;;3.00;;
7879;SDS011;3985;49.366;2.738;2024-02-26T00:10:11;4.50;;;4.50;;
7879;SDS011;3985;49.366;2.738;2024-02-26T00:12:41;5.75;;;5.75;;
7879;SDS011;3985;49.366;2.738;2024-02-26T00:15:10;4.00;;;2.50;;
7879;SDS011;3985;49.366;2.738;2024-02-26T00:17:37;6.75;;;5.50;;
7879;SDS011;3985;49.366;2.738;2024-02-26T00:20:05;4.75;;;4.75;;
7879;SDS011;3985;49.366;2.738;2024-02-26T00:22:34;4.00;;;4.00;;
7879;SDS011;3985;49.366;2.738;2024-02-26T00:25:01;7.00;;;6.50;;
7879;SDS011;3985;49.366;2.738;2024-02-26T00:27:31;7.25;;;7.25;;
7879;SDS011;3985;49.366;2.738;2024-02-26T00:30:00;3.75;;;3.00;;
7879;SDS011;3985;49.366;2.738;2024-02-26T00:32:29;3.50;;;3.50;;
7879;SDS011;3985;49.366;2.738;2024-02-26T00:34:57;3.25;;;3.25;;
7879;SDS011;3985;49.366;2.738;2024-02-26T00:37:24;4.50;;;4.25;;
7879;SDS011;3985;49.366;2.738;2024-02-26T00:39:52;3.00;;;3.00;;
7879;SDS011;3985;49.366;2.738;2024-02-26T00:42:19;3.75;;;3.75;;
7879;SDS011;3985;49.366;2.738;2024-02-26T00:44:46;4.00;;;4.00;;
7879;SDS011;3985;49.366;2.738;2024-02-26T00:47:15;4.00;;;1.00;;
7879;SDS011;3985;49.366;2.738;2024-02-26T00:49:42;4.00;;;4.00;;
7879;SDS011;3985;49.366;2.738;2024-02-26T00:52:09;4.00;;;4.00;;
7879;SDS011;3985;49.366;2.738;2024-02-26T00:54:36;6.00;;;6.00;;
7879;SDS011;3985;49.366;2.738;2024-02-26T00:57:04;2.25;;;2.25;;
7879;SDS011;3985;49.366;2.738;2024-02-26T00:59:31;4.25;;;3.00;;
7879;SDS011;3985;49.366;2.738;2024-02-26T01:01:58;3.25;;;3.25;;
7879;SDS011;3985;49.366;2.738;2024-02-26T01:04:29;4.00;;;2.00;;
7879;SDS011;3985;49.366;2.738;2024-02-26T01:06:56;3.75;;;3.00;;
7879;SDS011;3985;49.366;2.738;2024-02-26T01:09:25;3.00;;;3.00;;
7879;SDS011;3985;49.366;2.738;2024-02-26T01:11:53;1.50;;;1.50;;
7879;SDS011;3985;49.366;2.738;2024-02-26T01:14:20;5.00;;;3.00;;
7879;SDS011;3985;49.366;2.738;2024-02-26T01:16:48;2.75;;;2.75;;
7879;SDS011;3985;49.366;2.738;2024-02-26T01:19:15;15.00;;;13.25;;
7879;SDS011;3985;49.366;2.738;2024-02-26T01:21:44;4.25;;;4.25;;
7879;SDS011;3985;49.366;2.738;2024-02-26T01:24:11;6.25;;;6.00;;
7879;SDS011;3985;49.366;2.738;2024-02-26T01:26:39;8.75;;;8.75;;
7879;SDS011;3985;49.366;2.738;2024-02-26T01:29:06;9.00;;;6.75;;
7879;SDS011;3985;49.366;2.738;2024-02-26T01:31:33;5.00;;;5.00;;
7879;SDS011;3985;49.366;2.738;2024-02-26T01:34:00;5.00;;;5.00;;
7879;SDS011;3985;49.366;2.738;2024-02-26T01:36:28;5.00;;;3.75;;
7879;SDS011;3985;49.366;2.738;2024-02-26T01:38:57;2.50;;;2.50;;
7879;SDS011;3985;49.366;2.738;2024-02-26T01:41:26;4.50;;;2.25;;
7879;SDS011;3985;49.366;2.738;2024-02-26T01:43:55;1.50;;;1.50;;
7879;SDS011;3985;49.366;2.738;2024-02-26T01:46:23;2.00;;;2.00;;
7879;SDS011;3985;49.366;2.738;2024-02-26T01:48:50;1.25;;;1.25;;
7879;SDS011;3985;49.366;2.738;2024-02-26T01:51:17;2.50;;;2.50;;
7879;SDS011;3985;49.366;2.738;2024-02-26T01:53:45;3.25;;;2.25;;
7879;SDS011;3985;49.366;2.738;2024-02-26T01:56:14;2.25;;;2.25;;
7879;SDS011;3985;49.366;2.738;2024-02-26T01:58:44;3.50;;;3.25;;
7879;SDS011;3985;49.366;2.738;2024-02-26T02:01:12;2.75;;;2.75;;
7879;SDS011;3985;49.366;2.738;2024-02-26T02:03:39;5.00;;;3.00;;
7879;SDS011;3985;49.366;2.738;2024-02-26T02:06:07;3.00;;;3.00;;
7879;SDS011;3985;49.366;2.738;2024-02-26T02:08:35;6.00;;;4.00;;
7879;SDS011;3985;49.366;2.738;2024-02-26T02:11:04;3.00;;;3.00;;
7879;SDS011;3985;49.366;2.738;2024-02-26T02:13:33;1.00;;;1.00;;
7879;SDS011;3985;49.366;2.738;2024-02-26T02:16:00;3.00;;;3.00;;
7879;SDS011;3985;49.366;2.738;2024-02-26T02:18:27;2.00;;;2.00;;
7879;SDS011;3985;49.366;2.738;2024-02-26T02:20:56;1.00;;;1.00;;
7879;SDS011;3985;49.366;2.738;2024-02-26T02:23:26;1.50;;;1.00;;
7879;SDS011;3985;49.366;2.738;2024-02-26T02:25:56;5.25;;;5.25;;
7879;SDS011;3985;49.366;2.738;2024-02-26T02:28:27;7.00;;;5.75;;
7879;SDS011;3985;49.366;2.738;2024-02-26T02:30:57;3.25;;;3.25;;
7879;SDS011;3985;49.366;2.738;2024-02-26T02:33:25;3.00;;;3.00;;
7879;SDS011;3985;49.366;2.738;2024-02-26T02:35:56;2.75;;;2.75;;
7879;SDS011;3985;49.366;2.738;2024-02-26T02:38:24;5.75;;;4.00;;
7879;SDS011;3985;49.366;2.738;2024-02-26T02:40:51;3.00;;;3.00;;
7879;SDS011;3985;49.366;2.738;2024-02-26T02:43:18;3.50;;;3.00;;
7879;SDS011;3985;49.366;2.738;2024-02-26T02:45:46;3.75;;;3.25;;
7879;SDS011;3985;49.366;2.738;2024-02-26T02:48:13;4.00;;;4.00;;
7879;SDS011;3985;49.366;2.738;2024-02-26T02:50:40;3.00;;;3.00;;
7879;SDS011;3985;49.366;2.738;2024-02-26T02:53:09;4.00;;;4.00;;
7879;SDS011;3985;49.366;2.738;2024-02-26T02:55:36;5.00;;;5.00;;
7879;SDS011;3985;49.366;2.738;2024-02-26T02:58:03;12.00;;;12.00;;
7879;SDS011;3985;49.366;2.738;2024-02-26T03:00:31;10.25;;;10.25;;
7879;SDS011;3985;49.366;2.738;2024-02-26T03:02:58;9.25;;;8.00;;
7879;SDS011;3985;49.366;2.738;2024-02-26T03:05:26;10.50;;;10.50;;
7879;SDS011;3985;49.366;2.738;2024-02-26T03:07:53;9.25;;;7.50;;
7879;SDS011;3985;49.366;2.738;2024-02-26T03:10:22;5.00;;;5.00;;
7879;SDS011;3985;49.366;2.738;2024-02-26T03:12:49;4.00;;;4.00;;
7879;SDS011;3985;49.366;2.738;2024-02-26T03:15:17;4.75;;;4.75;;
7879;SDS011;3985;49.366;2.738;2024-02-26T03:17:43;5.00;;;2.00;;
7879;SDS011;3985;49.366;2.738;2024-02-26T03:20:10;3.00;;;3.00;;
7879;SDS011;3985;49.366;2.738;2024-02-26T03:22:38;3.00;;;3.00;;
7879;SDS011;3985;49.366;2.738;2024-02-26T03:25:06;4.00;;;4.00;;
7879;SDS011;3985;49.366;2.738;2024-02-26T03:27:35;10.00;;;6.25;;
7879;SDS011;3985;49.366;2.738;2024-02-26T03:30:02;5.75;;;5.75;;
7879;SDS011;3985;49.366;2.738;2024-02-26T03:32:31;4.00;;;4.00;;
7879;SDS011;3985;49.366;2.738;2024-02-26T03:34:58;5.25;;;5.25;;
7879;SDS011;3985;49.366;2.738;2024-02-26T03:37:26;3.00;;;3.00;;
7879;SDS011;3985;49.366;2.738;2024-02-26T03:39:54;2.00;;;2.00;;
7879;SDS011;3985;49.366;2.738;2024-02-26T03:42:22;2.33;;;2.33;;
7879;SDS011;3985;49.366;2.738;2024-02-26T03:44:51;2.33;;;2.33;;
7879;SDS011;3985;49.366;2.738;2024-02-26T03:47:19;4.00;;;3.00;;
7879;SDS011;3985;49.366;2.738;2024-02-26T03:49:47;2.00;;;2.00;;
7879;SDS011;3985;49.366;2.738;2024-02-26T03:52:14;3.00;;;3.00;;
7879;SDS011;3985;49.366;2.738;2024-02-26T03:54:41;3.00;;;3.00;;
7879;SDS011;3985;49.366;2.738;2024-02-26T03:57:08;2.00;;;2.00;;
7879;SDS011;3985;49.366;2.738;2024-02-26T03:59:36;4.33;;;3.00;;
7879;SDS011;3985;49.366;2.738;2024-02-26T04:02:06;4.33;;;3.00;;
7879;SDS011;3985;49.366;2.738;2024-02-26T04:04:34;2.00;;;2.00;;
7879;SDS011;3985;49.366;2.738;2024-02-26T04:07:02;3.00;;;3.00;;
7879;SDS011;3985;49.366;2.738;2024-02-26T04:09:30;3.00;;;3.00;;
7879;SDS011;3985;49.366;2.738;2024-02-26T04:11:59;3.00;;;3.00;;
7879;SDS011;3985;49.366;2.738;2024-02-26T04:14:27;2.33;;;2.00;;
7879;SDS011;3985;49.366;2.738;2024-02-26T04:16:54;3.00;;;3.00;;
7879;SDS011;3985;49.366;2.738;2024-02-26T04:19:23;8.25;;;6.75;;
7879;SDS011;3985;49.366;2.738;2024-02-26T04:21:50;12.00;;;10.00;;
7879;SDS011;3985;49.366;2.738;2024-02-26T04:24:17;10.00;;;10.00;;
7879;SDS011;3985;49.366;2.738;2024-02-26T04:26:45;56.25;;;45.25;;
7879;SDS011;3985;49.366;2.738;2024-02-26T04:29:12;27.50;;;25.75;;
7879;SDS011;3985;49.366;2.738;2024-02-26T04:31:39;19.25;;;16.25;;
7879;SDS011;3985;49.366;2.738;2024-02-26T04:34:08;11.25;;;11.25;;
7879;SDS011;3985;49.366;2.738;2024-02-26T04:36:36;5.75;;;5.00;;
7879;SDS011;3985;49.366;2.738;2024-02-26T04:39:04;4.25;;;3.25;;
7879;SDS011;3985;49.366;2.738;2024-02-26T04:41:31;3.75;;;3.25;;
7879;SDS011;3985;49.366;2.738;2024-02-26T04:43:59;5.00;;;5.00;;
7879;SDS011;3985;49.366;2.738;2024-02-26T04:46:26;3.67;;;3.67;;
7879;SDS011;3985;49.366;2.738;2024-02-26T04:48:55;3.00;;;3.00;;
7879;SDS011;3985;49.366;2.738;2024-02-26T04:51:22;4.50;;;4.00;;
7879;SDS011;3985;49.366;2.738;2024-02-26T04:53:51;4.00;;;3.00;;
7879;SDS011;3985;49.366;2.738;2024-02-26T04:56:20;4.00;;;4.00;;
7879;SDS011;3985;49.366;2.738;2024-02-26T04:58:47;6.75;;;3.25;;
7879;SDS011;3985;49.366;2.738;2024-02-26T05:01:15;5.25;;;4.00;;
7879;SDS011;3985;49.366;2.738;2024-02-26T05:03:43;6.50;;;4.00;;
7879;SDS011;3985;49.366;2.738;2024-02-26T05:06:11;6.25;;;5.50;;
7879;SDS011;3985;49.366;2.738;2024-02-26T05:08:38;2.00;;;2.00;;
7879;SDS011;3985;49.366;2.738;2024-02-26T05:11:07;4.00;;;4.00;;
7879;SDS011;3985;49.366;2.738;2024-02-26T05:13:34;3.33;;;3.00;;
7879;SDS011;3985;49.366;2.738;2024-02-26T05:16:05;3.00;;;3.00;;
7879;SDS011;3985;49.366;2.738;2024-02-26T05:18:32;3.33;;;2.00;;
7879;SDS011;3985;49.366;2.738;2024-02-26T05:20:59;2.67;;;2.67;;
7879;SDS011;3985;49.366;2.738;2024-02-26T05:23:28;3.00;;;2.00;;
7879;SDS011;3985;49.366;2.738;2024-02-26T05:25:55;4.00;;;2.00;;
7879;SDS011;3985;49.366;2.738;2024-02-26T05:28:24;0.00;;;0.00;;
7879;SDS011;3985;49.366;2.738;2024-02-26T05:30:51;4.00;;;4.00;;
7879;SDS011;3985;49.366;2.738;2024-02-26T05:33:19;4.00;;;2.67;;
7879;SDS011;3985;49.366;2.738;2024-02-26T05:35:46;2.00;;;2.00;;
7879;SDS011;3985;49.366;2.738;2024-02-26T05:38:14;4.00;;;4.00;;
7879;SDS011;3985;49.366;2.738;2024-02-26T05:40:41;4.67;;;4.00;;
7879;SDS011;3985;49.366;2.738;2024-02-26T05:43:08;5.67;;;5.00;;
7879;SDS011;3985;49.366;2.738;2024-02-26T05:45:38;4.00;;;4.00;;
7879;SDS011;3985;49.366;2.738;2024-02-26T05:48:05;4.00;;;3.25;;
7879;SDS011;3985;49.366;2.738;2024-02-26T05:50:33;5.00;;;5.00;;
7879;SDS011;3985;49.366;2.738;2024-02-26T05:53:00;3.00;;;3.00;;
7879;SDS011;3985;49.366;2.738;2024-02-26T05:55:27;3.25;;;3.25;;
7879;SDS011;3985;49.366;2.738;2024-02-26T05:57:55;3.75;;;3.00;;
7879;SDS011;3985;49.366;2.738;2024-02-26T06:00:22;5.33;;;2.33;;
7879;SDS011;3985;49.366;2.738;2024-02-26T06:02:51;4.00;;;4.00;;
7879;SDS011;3985;49.366;2.738;2024-02-26T06:05:18;5.50;;;3.75;;
7879;SDS011;3985;49.366;2.738;2024-02-26T06:07:46;3.00;;;3.00;;
7879;SDS011;3985;49.366;2.738;2024-02-26T06:10:13;4.75;;;2.75;;
7879;SDS011;3985;49.366;2.738;2024-02-26T06:12:40;3.00;;;3.00;;
7879;SDS011;3985;49.366;2.738;2024-02-26T06:15:08;2.00;;;2.00;;
7879;SDS011;3985;49.366;2.738;2024-02-26T06:17:36;5.00;;;3.00;;
7879;SDS011;3985;49.366;2.738;2024-02-26T06:20:06;3.00;;;3.00;;
7879;SDS011;3985;49.366;2.738;2024-02-26T06:22:37;3.00;;;3.00;;
7879;SDS011;3985;49.366;2.738;2024-02-26T06:25:05;3.00;;;3.00;;
7879;SDS011;3985;49.366;2.738;2024-02-26T06:27:34;9.50;;;5.25;;
7879;SDS011;3985;49.366;2.738;2024-02-26T06:30:01;5.50;;;5.00;;
7879;SDS011;3985;49.366;2.738;2024-02-26T06:32:29;5.25;;;5.25;;
7879;SDS011;3985;49.366;2.738;2024-02-26T06:34:56;5.00;;;5.00;;
7879;SDS011;3985;49.366;2.738;2024-02-26T06:37:25;3.75;;;3.75;;
7879;SDS011;3985;49.366;2.738;2024-02-26T06:39:52;5.00;;;5.00;;
7879;SDS011;3985;49.366;2.738;2024-02-26T06:42:19;4.00;;;4.00;;
7879;SDS011;3985;49.366;2.738;2024-02-26T06:44:47;4.25;;;4.25;;
7879;SDS011;3985;49.366;2.738;2024-02-26T06:47:14;4.00;;;4.00;;
7879;SDS011;3985;49.366;2.738;2024-02-26T06:49:41;9.25;;;9.25;;
7879;SDS011;3985;49.366;2.738;2024-02-26T06:52:09;5.25;;;5.25;;
7879;SDS011;3985;49.366;2.738;2024-02-26T06:54:37;4.75;;;4.75;;
7879;SDS011;3985;49.366;2.738;2024-02-26T06:57:05;9.00;;;9.00;;
7879;SDS011;3985;49.366;2.738;2024-02-26T06:59:32;5.00;;;5.00;;
7879;SDS011;3985;49.366;2.738;2024-02-26T07:02:02;5.75;;;5.75;;
7879;SDS011;3985;49.366;2.738;2024-02-26T07:04:29;6.50;;;4.00;;
7879;SDS011;3985;49.366;2.738;2024-02-26T07:06:59;4.00;;;4.00;;
7879;SDS011;3985;49.366;2.738;2024-02-26T07:09:35;3.00;;;3.00;;
7879;SDS011;3985;49.366;2.738;2024-02-26T07:12:04;7.00;;;4.75;;
7879;SDS011;3985;49.366;2.738;2024-02-26T07:14:36;6.50;;;4.00;;
7879;SDS011;3985;49.366;2.738;2024-02-26T07:17:04;4.50;;;4.50;;
7879;SDS011;3985;49.366;2.738;2024-02-26T07:19:32;3.00;;;3.00;;
7879;SDS011;3985;49.366;2.738;2024-02-26T07:21:59;3.00;;;3.00;;
7879;SDS011;3985;49.366;2.738;2024-02-26T07:24:29;3.50;;;3.50;;
7879;SDS011;3985;49.366;2.738;2024-02-26T07:26:58;4.25;;;3.00;;
7879;SDS011;3985;49.366;2.738;2024-02-26T07:29:33;3.00;;;3.00;;
7879;SDS011;3985;49.366;2.738;2024-02-26T07:32:00;4.00;;;4.00;;
7879;SDS011;3985;49.366;2.738;2024-02-26T07:34:33;2.75;;;2.75;;
7879;SDS011;3985;49.366;2.738;2024-02-26T07:37:02;3.50;;;3.50;;
7879;SDS011;3985;49.366;2.738;2024-02-26T07:39:31;3.00;;;3.00;;
7879;SDS011;3985;49.366;2.738;2024-02-26T07:42:00;4.00;;;4.00;;
7879;SDS011;3985;49.366;2.738;2024-02-26T07:44:29;5.50;;;4.00;;
7879;SDS011;3985;49.366;2.738;2024-02-26T07:46:56;6.00;;;4.00;;
7879;SDS011;3985;49.366;2.738;2024-02-26T07:49:23;3.00;;;3.00;;
7879;SDS011;3985;49.366;2.738;2024-02-26T07:51:50;3.75;;;3.75;;
7879;SDS011;3985;49.366;2.738;2024-02-26T07:54:18;2.50;;;2.50;;
7879;SDS011;3985;49.366;2.738;2024-02-26T07:56:45;2.00;;;1.00;;
7879;SDS011;3985;49.366;2.738;2024-02-26T07:59:13;4.75;;;4.00;;
7879;SDS011;3985;49.366;2.738;2024-02-26T08:01:41;4.00;;;4.00;;
7879;SDS011;3985;49.366;2.738;2024-02-26T08:04:08;6.00;;;4.75;;
7879;SDS011;3985;49.366;2.738;2024-02-26T08:06:35;4.00;;;4.00;;
7879;SDS011;3985;49.366;2.738;2024-02-26T08:09:03;7.00;;;5.00;;
7879;SDS011;3985;49.366;2.738;2024-02-26T08:11:30;6.25;;;6.25;;
7879;SDS011;3985;49.366;2.738;2024-02-26T08:14:00;6.25;;;5.25;;
7879;SDS011;3985;49.366;2.738;2024-02-26T08:16:28;4.25;;;4.25;;
7879;SDS011;3985;49.366;2.738;2024-02-26T08:19:03;9.75;;;7.00;;
7879;SDS011;3985;49.366;2.738;2024-02-26T08:21:31;34.00;;;30.00;;
7879;SDS011;3985;49.366;2.738;2024-02-26T08:24:08;42.50;;;36.25;;
7879;SDS011;3985;49.366;2.738;2024-02-26T08:26:37;33.75;;;32.00;;
7879;SDS011;3985;49.366;2.738;2024-02-26T08:29:04;16.25;;;14.50;;
7879;SDS011;3985;49.366;2.738;2024-02-26T08:31:32;10.00;;;7.50;;
7879;SDS011;3985;49.366;2.738;2024-02-26T08:34:09;11.50;;;8.50;;
7879;SDS011;3985;49.366;2.738;2024-02-26T08:36:39;15.75;;;8.00;;
7879;SDS011;3985;49.366;2.738;2024-02-26T08:39:08;14.50;;;12.75;;
7879;SDS011;3985;49.366;2.738;2024-02-26T08:41:35;8.00;;;8.00;;
7879;SDS011;3985;49.366;2.738;2024-02-26T08:44:09;10.75;;;10.75;;
7879;SDS011;3985;49.366;2.738;2024-02-26T08:46:37;16.00;;;11.25;;
7879;SDS011;3985;49.366;2.738;2024-02-26T08:49:04;11.00;;;11.00;;
7879;SDS011;3985;49.366;2.738;2024-02-26T08:51:35;12.25;;;11.00;;
7879;SDS011;3985;49.366;2.738;2024-02-26T08:54:05;14.75;;;9.25;;
7879;SDS011;3985;49.366;2.738;2024-02-26T08:56:32;11.00;;;11.00;;
7879;SDS011;3985;49.366;2.738;2024-02-26T08:59:00;12.50;;;11.75;;
7879;SDS011;3985;49.366;2.738;2024-02-26T09:01:28;14.75;;;13.00;;
7879;SDS011;3985;49.366;2.738;2024-02-26T09:03:58;12.00;;;12.00;;
7879;SDS011;3985;49.366;2.738;2024-02-26T09:06:25;14.25;;;12.00;;
7879;SDS011;3985;49.366;2.738;2024-02-26T09:08:52;16.00;;;13.00;;
7879;SDS011;3985;49.366;2.738;2024-02-26T09:11:20;16.75;;;16.75;;
7879;SDS011;3985;49.366;2.738;2024-02-26T09:13:47;15.25;;;15.25;;
7879;SDS011;3985;49.366;2.738;2024-02-26T09:16:14;16.75;;;14.75;;
7879;SDS011;3985;49.366;2.738;2024-02-26T09:18:41;12.25;;;12.25;;
7879;SDS011;3985;49.366;2.738;2024-02-26T09:21:10;11.00;;;11.00;;
7879;SDS011;3985;49.366;2.738;2024-02-26T09:23:37;12.00;;;10.75;;
7879;SDS011;3985;49.366;2.738;2024-02-26T09:26:05;9.25;;;9.00;;
7879;SDS011;3985;49.366;2.738;2024-02-26T09:28:32;11.75;;;9.00;;
7879;SDS011;3985;49.366;2.738;2024-02-26T09:31:05;12.25;;;12.25;;
7879;SDS011;3985;49.366;2.738;2024-02-26T09:33:35;13.00;;;13.00;;
7879;SDS011;3985;49.366;2.738;2024-02-26T09:36:05;13.50;;;13.50;;
7879;SDS011;3985;49.366;2.738;2024-02-26T09:38:35;10.50;;;6.25;;
7879;SDS011;3985;49.366;2.738;2024-02-26T09:41:05;6.00;;;5.25;;
7879;SDS011;3985;49.366;2.738;2024-02-26T09:43:34;12.50;;;11.25;;
7879;SDS011;3985;49.366;2.738;2024-02-26T09:46:03;13.00;;;10.00;;
7879;SDS011;3985;49.366;2.738;2024-02-26T09:48:31;15.25;;;13.50;;
7879;SDS011;3985;49.366;2.738;2024-02-26T09:51:02;7.00;;;5.25;;
7879;SDS011;3985;49.366;2.738;2024-02-26T09:53:30;7.00;;;7.00;;
7879;SDS011;3985;49.366;2.738;2024-02-26T09:56:05;8.00;;;8.00;;
7879;SDS011;3985;49.366;2.738;2024-02-26T09:58:33;5.25;;;4.00;;
7879;SDS011;3985;49.366;2.738;2024-02-26T10:01:02;1.00;;;1.00;;
7879;SDS011;3985;49.366;2.738;2024-02-26T10:03:38;5.00;;;5.00;;
7879;SDS011;3985;49.366;2.738;2024-02-26T10:06:09;4.00;;;4.00;;
7879;SDS011;3985;49.366;2.738;2024-02-26T10:08:36;6.00;;;6.00;;
7879;SDS011;3985;49.366;2.738;2024-02-26T10:11:06;4.00;;;4.00;;
7879;SDS011;3985;49.366;2.738;2024-02-26T10:13:34;2.25;;;2.25;;
7879;SDS011;3985;49.366;2.738;2024-02-26T10:16:02;3.00;;;3.00;;
7879;SDS011;3985;49.366;2.738;2024-02-26T10:18:46;2.00;;;2.00;;
7879;SDS011;3985;49.366;2.738;2024-02-26T10:21:17;1.75;;;1.75;;
7879;SDS011;3985;49.366;2.738;2024-02-26T10:23:45;2.00;;;2.00;;
7879;SDS011;3985;49.366;2.738;2024-02-26T10:26:16;3.00;;;3.00;;
7879;SDS011;3985;49.366;2.738;2024-02-26T10:28:44;5.75;;;5.75;;
7879;SDS011;3985;49.366;2.738;2024-02-26T10:31:14;4.25;;;4.25;;
7879;SDS011;3985;49.366;2.738;2024-02-26T10:33:43;3.00;;;3.00;;
7879;SDS011;3985;49.366;2.738;2024-02-26T10:36:10;2.25;;;2.25;;
7879;SDS011;3985;49.366;2.738;2024-02-26T10:38:37;3.00;;;3.00;;
7879;SDS011;3985;49.366;2.738;2024-02-26T10:41:06;4.00;;;4.00;;
7879;SDS011;3985;49.366;2.738;2024-02-26T10:43:35;4.75;;;4.00;;
7879;SDS011;3985;49.366;2.738;2024-02-26T10:46:05;3.00;;;3.00;;
7879;SDS011;3985;49.366;2.738;2024-02-26T10:48:32;3.50;;;3.00;;
7879;SDS011;3985;49.366;2.738;2024-02-26T10:51:02;4.25;;;3.00;;
7879;SDS011;3985;49.366;2.738;2024-02-26T10:53:31;2.75;;;2.75;;
7879;SDS011;3985;49.366;2.738;2024-02-26T10:56:01;3.00;;;3.00;;
7879;SDS011;3985;49.366;2.738;2024-02-26T10:58:30;5.00;;;5.00;;
7879;SDS011;3985;49.366;2.738;2024-02-26T11:01:02;4.00;;;4.00;;
7879;SDS011;3985;49.366;2.738;2024-02-26T11:03:30;3.00;;;3.00;;
7879;SDS011;3985;49.366;2.738;2024-02-26T11:06:01;4.50;;;3.00;;
7879;SDS011;3985;49.366;2.738;2024-02-26T11:08:36;2.50;;;2.50;;
7879;SDS011;3985;49.366;2.738;2024-02-26T11:11:03;8.25;;;6.00;;
7879;SDS011;3985;49.366;2.738;2024-02-26T11:13:31;4.50;;;2.75;;
7879;SDS011;3985;49.366;2.738;2024-02-26T11:16:05;2.00;;;2.00;;
7879;SDS011;3985;49.366;2.738;2024-02-26T11:18:33;5.25;;;3.50;;
7879;SDS011;3985;49.366;2.738;2024-02-26T11:21:02;3.00;;;3.00;;
7879;SDS011;3985;49.366;2.738;2024-02-26T11:23:30;9.00;;;9.00;;
7879;SDS011;3985;49.366;2.738;2024-02-26T11:26:00;2.75;;;2.75;;
7879;SDS011;3985;49.366;2.738;2024-02-26T11:28:28;8.00;;;8.00;;
7879;SDS011;3985;49.366;2.738;2024-02-26T11:30:56;3.50;;;3.50;;
7879;SDS011;3985;49.366;2.738;2024-02-26T11:33:31;7.25;;;7.25;;
7879;SDS011;3985;49.366;2.738;2024-02-26T11:36:00;10.50;;;5.50;;
7879;SDS011;3985;49.366;2.738;2024-02-26T11:38:28;3.00;;;3.00;;
7879;SDS011;3985;49.366;2.738;2024-02-26T11:40:55;4.00;;;4.00;;
7879;SDS011;3985;49.366;2.738;2024-02-26T11:43:23;7.25;;;4.75;;
7879;SDS011;3985;49.366;2.738;2024-02-26T11:45:56;1.25;;;1.25;;
7879;SDS011;3985;49.366;2.738;2024-02-26T11:48:25;4.75;;;4.75;;
7879;SDS011;3985;49.366;2.738;2024-02-26T11:50:56;1.00;;;1.00;;
7879;SDS011;3985;49.366;2.738;2024-02-26T11:53:28;5.00;;;5.00;;
7879;SDS011;3985;49.366;2.738;2024-02-26T11:56:12;3.00;;;3.00;;
7879;SDS011;3985;49.366;2.738;2024-02-26T11:58:45;3.00;;;3.00;;
7879;SDS011;3985;49.366;2.738;2024-02-26T12:04:07;2.25;;;2.25;;
7879;SDS011;3985;49.366;2.738;2024-02-26T12:06:42;2.50;;;2.50;;
7879;SDS011;3985;49.366;2.738;2024-02-26T12:09:11;2.00;;;1.00;;
7879;SDS011;3985;49.366;2.738;2024-02-26T12:11:38;11.00;;;8.75;;
7879;SDS011;3985;49.366;2.738;2024-02-26T12:14:07;6.25;;;6.25;;
7879;SDS011;3985;49.366;2.738;2024-02-26T12:16:35;4.00;;;3.00;;
7879;SDS011;3985;49.366;2.738;2024-02-26T12:19:04;3.00;;;3.00;;
7879;SDS011;3985;49.366;2.738;2024-02-26T12:21:35;7.75;;;5.75;;
7879;SDS011;3985;49.366;2.738;2024-02-26T12:24:14;4.00;;;4.00;;
7879;SDS011;3985;49.366;2.738;2024-02-26T12:26:41;6.25;;;4.50;;
7879;SDS011;3985;49.366;2.738;2024-02-26T12:29:10;5.00;;;4.75;;
7879;SDS011;3985;49.366;2.738;2024-02-26T12:31:38;4.00;;;4.00;;
7879;SDS011;3985;49.366;2.738;2024-02-26T12:34:06;3.25;;;3.25;;
7879;SDS011;3985;49.366;2.738;2024-02-26T12:36:35;2.00;;;2.00;;
7879;SDS011;3985;49.366;2.738;2024-02-26T12:39:03;5.00;;;5.00;;
7879;SDS011;3985;49.366;2.738;2024-02-26T12:41:35;3.00;;;3.00;;
7879;SDS011;3985;49.366;2.738;2024-02-26T12:44:04;3.00;;;3.00;;
7879;SDS011;3985;49.366;2.738;2024-02-26T12:46:32;2.00;;;2.00;;
7879;SDS011;3985;49.366;2.738;2024-02-26T12:49:02;5.00;;;3.00;;
7879;SDS011;3985;49.366;2.738;2024-02-26T12:51:34;5.00;;;3.25;;
7879;SDS011;3985;49.366;2.738;2024-02-26T12:54:01;6.25;;;6.25;;
7879;SDS011;3985;49.366;2.738;2024-02-26T12:56:29;11.00;;;5.00;;
7879;SDS011;3985;49.366;2.738;2024-02-26T12:58:58;7.25;;;7.25;;
7879;SDS011;3985;49.366;2.738;2024-02-26T13:01:25;3.00;;;3.00;;
7879;SDS011;3985;49.366;2.738;2024-02-26T13:03:53;3.00;;;3.00;;
7879;SDS011;3985;49.366;2.738;2024-02-26T13:06:20;1.00;;;1.00;;
7879;SDS011;3985;49.366;2.738;2024-02-26T13:08:55;2.25;;;2.25;;
7879;SDS011;3985;49.366;2.738;2024-02-26T13:11:24;10.50;;;8.00;;
7879;SDS011;3985;49.366;2.738;2024-02-26T13:13:57;4.50;;;4.50;;
7879;SDS011;3985;49.366;2.738;2024-02-26T13:16:34;3.75;;;3.75;;
7879;SDS011;3985;49.366;2.738;2024-02-26T13:19:08;6.25;;;4.00;;
7879;SDS011;3985;49.366;2.738;2024-02-26T13:21:35;2.75;;;2.75;;
7879;SDS011;3985;49.366;2.738;2024-02-26T13:24:03;3.25;;;3.25;;
7879;SDS011;3985;49.366;2.738;2024-02-26T13:26:30;5.00;;;5.00;;
7879;SDS011;3985;49.366;2.738;2024-02-26T13:29:02;4.00;;;4.00;;
7879;SDS011;3985;49.366;2.738;2024-02-26T13:31:30;4.50;;;4.50;;
7879;SDS011;3985;49.366;2.738;2024-02-26T13:33:58;4.00;;;4.00;;
7879;SDS011;3985;49.366;2.738;2024-02-26T13:36:25;4.75;;;3.25;;
7879;SDS011;3985;49.366;2.738;2024-02-26T13:38:53;5.75;;;5.75;;
7879;SDS011;3985;49.366;2.738;2024-02-26T13:41:21;7.00;;;7.00;;
7879;SDS011;3985;49.366;2.738;2024-02-26T13:43:48;7.00;;;7.00;;
7879;SDS011;3985;49.366;2.738;2024-02-26T13:46:20;10.25;;;10.25;;
7879;SDS011;3985;49.366;2.738;2024-02-26T13:48:50;17.75;;;14.75;;
7879;SDS011;3985;49.366;2.738;2024-02-26T13:51:19;6.75;;;6.75;;
7879;SDS011;3985;49.366;2.738;2024-02-26T13:53:47;12.75;;;11.00;;
7879;SDS011;3985;49.366;2.738;2024-02-26T13:56:14;13.75;;;13.75;;
7879;SDS011;3985;49.366;2.738;2024-02-26T13:58:41;11.00;;;8.00;;
7879;SDS011;3985;49.366;2.738;2024-02-26T14:01:08;7.50;;;7.50;;
7879;SDS011;3985;49.366;2.738;2024-02-26T14:03:40;9.75;;;5.25;;
7879;SDS011;3985;49.366;2.738;2024-02-26T14:06:10;8.75;;;5.50;;
7879;SDS011;3985;49.366;2.738;2024-02-26T14:08:37;9.75;;;9.75;;
7879;SDS011;3985;49.366;2.738;2024-02-26T14:11:04;9.25;;;7.00;;
7879;SDS011;3985;49.366;2.738;2024-02-26T14:13:32;10.00;;;10.00;;
7879;SDS011;3985;49.366;2.738;2024-02-26T14:16:01;10.00;;;10.00;;
7879;SDS011;3985;49.366;2.738;2024-02-26T14:18:29;13.50;;;12.75;;
7879;SDS011;3985;49.366;2.738;2024-02-26T14:20:59;14.75;;;14.75;;
7879;SDS011;3985;49.366;2.738;2024-02-26T14:23:26;9.75;;;8.00;;
7879;SDS011;3985;49.366;2.738;2024-02-26T14:25:53;10.50;;;10.50;;
7879;SDS011;3985;49.366;2.738;2024-02-26T14:28:22;8.25;;;8.25;;
7879;SDS011;3985;49.366;2.738;2024-02-26T14:30:49;13.75;;;13.25;;
7879;SDS011;3985;49.366;2.738;2024-02-26T14:33:22;8.00;;;8.00;;
7879;SDS011;3985;49.366;2.738;2024-02-26T14:35:49;7.00;;;7.00;;
7879;SDS011;3985;49.366;2.738;2024-02-26T14:38:18;10.00;;;8.00;;
7879;SDS011;3985;49.366;2.738;2024-02-26T14:40:45;8.00;;;8.00;;
7879;SDS011;3985;49.366;2.738;2024-02-26T14:43:13;9.75;;;9.75;;
7879;SDS011;3985;49.366;2.738;2024-02-26T14:45:40;10.00;;;10.00;;
7879;SDS011;3985;49.366;2.738;2024-02-26T14:48:08;9.00;;;9.00;;
7879;SDS011;3985;49.366;2.738;2024-02-26T14:50:36;13.25;;;11.50;;
7879;SDS011;3985;49.366;2.738;2024-02-26T14:53:06;10.00;;;10.00;;
7879;SDS011;3985;49.366;2.738;2024-02-26T14:55:37;9.00;;;9.00;;
7879;SDS011;3985;49.366;2.738;2024-02-26T14:58:05;11.25;;;11.25;;
7879;SDS011;3985;49.366;2.738;2024-02-26T15:00:35;11.25;;;10.75;;
7879;SDS011;3985;49.366;2.738;2024-02-26T15:03:03;13.75;;;12.00;;
7879;SDS011;3985;49.366;2.738;2024-02-26T15:05:30;9.25;;;9.25;;
7879;SDS011;3985;49.366;2.738;2024-02-26T15:08:00;9.00;;;9.00;;
7879;SDS011;3985;49.366;2.738;2024-02-26T15:10:28;20.50;;;16.00;;
7879;SDS011;3985;49.366;2.738;2024-02-26T15:12:57;9.75;;;9.75;;
7879;SDS011;3985;49.366;2.738;2024-02-26T15:15:24;13.50;;;11.00;;
7879;SDS011;3985;49.366;2.738;2024-02-26T15:17:52;11.25;;;8.00;;
7879;SDS011;3985;49.366;2.738;2024-02-26T15:20:20;10.50;;;10.50;;